Time;durP1;ratioP1;P1;durP2;ratioP2;P2;SDS_P1;SDS_P2;PMS_P1;PMS_P2;Temp;Humidity;BMP_temperature;BMP_pressure;BME280_temperature;BME280_humidity;BME280_pressure;Samples;Min_cycle;Max_cycle;Signal;HPM_P1;HPM_P2
2021/05/28 00:02:48;;;;;;;4.60;1.38;;;20.30;62.70;;;;;;20974216;22;20049;-22
2021/05/28 00:12:49;;;;;;;4.20;1.35;;;20.30;62.80;;;;;;20965502;28;20021;-22
2021/05/28 00:22:50;;;;;;;6.03;1.40;;;20.30;62.80;;;;;;20987206;28;20029;-22
2021/05/28 00:32:51;;;;;;;5.95;2.10;;;20.30;62.70;;;;;;20973799;28;20036;-22
2021/05/28 00:42:51;;;;;;;2.88;0.90;;;20.20;62.70;;;;;;20954001;28;20089;-20
2021/05/28 00:52:53;;;;;;;6.75;1.90;;;20.20;62.80;;;;;;20956282;28;20487;-21
2021/05/28 01:02:55;;;;;;;11.20;1.40;;;20.20;62.40;;;;;;20957529;28;20060;-21
2021/05/28 01:13:06;;;;;;;3.58;1.38;;;20.20;62.70;;;;;;20949555;28;20120;-22
2021/05/28 01:23:06;;;;;;;3.95;1.45;;;20.20;62.60;;;;;;20941714;28;20395;-22
2021/05/28 01:33:08;;;;;;;3.30;0.82;;;20.20;62.50;;;;;;20928391;28;20108;-21
2021/05/28 01:43:09;;;;;;;3.05;1.13;;;20.10;62.30;;;;;;20940499;28;20029;-22
2021/05/28 01:53:17;;;;;;;7.67;1.27;;;20.00;62.40;;;;;;20957809;28;20102;-21
2021/05/28 02:03:18;;;;;;;5.33;1.83;;;20.00;62.30;;;;;;20959957;28;20531;-24
2021/05/28 02:13:19;;;;;;;4.53;1.35;;;20.00;62.60;;;;;;20947424;28;20035;-21
2021/05/28 02:23:19;;;;;;;3.53;1.10;;;19.90;62.60;;;;;;20957485;28;20505;-22
2021/05/28 02:33:20;;;;;;;5.53;1.20;;;19.80;62.40;;;;;;20982376;28;20021;-21
2021/05/28 02:43:20;;;;;;;3.75;0.90;;;19.90;62.40;;;;;;20969498;28;20079;-21
2021/05/28 02:53:21;;;;;;;3.63;1.27;;;19.80;62.40;;;;;;20986009;28;20029;-21
2021/05/28 03:03:22;;;;;;;2.97;1.00;;;19.80;62.30;;;;;;20992108;28;20056;-21
2021/05/28 03:13:23;;;;;;;2.90;1.40;;;19.70;62.20;;;;;;20987887;28;20033;-21
2021/05/28 03:23:23;;;;;;;3.88;1.77;;;19.70;62.10;;;;;;20977826;28;20033;-21
2021/05/28 03:33:24;;;;;;;4.07;1.08;;;19.60;61.90;;;;;;20990347;28;20047;-21
2021/05/28 03:43:25;;;;;;;3.55;1.00;;;19.60;61.90;;;;;;20990674;28;20017;-22
2021/05/28 03:53:25;;;;;;;3.42;1.23;;;19.60;61.80;;;;;;20992705;28;20021;-22
2021/05/28 04:03:26;;;;;;;3.70;1.15;;;19.60;61.70;;;;;;20987879;28;20526;-22
2021/05/28 04:13:32;;;;;;;2.80;1.00;;;19.60;61.70;;;;;;20991694;28;20063;-22
2021/05/28 04:23:33;;;;;;;3.42;1.10;;;19.80;60.60;;;;;;20974805;28;20478;-21
2021/05/28 04:33:34;;;;;;;3.65;1.20;;;20.20;59.10;;;;;;20959164;28;20039;-23
2021/05/28 04:43:34;;;;;;;4.72;1.48;;;20.80;57.10;;;;;;20955922;28;20035;-23
2021/05/28 04:53:35;;;;;;;2.23;1.23;;;20.90;56.50;;;;;;20964456;28;20037;-21
2021/05/28 05:03:36;;;;;;;2.70;1.08;;;20.80;56.40;;;;;;20955503;28;20032;-21
2021/05/28 05:13:36;;;;;;;6.13;1.05;;;20.70;56.50;;;;;;21002981;28;20391;-21
2021/05/28 05:23:37;;;;;;;4.65;1.58;;;20.60;57.20;;;;;;21031434;28;20032;-21
2021/05/28 05:33:38;;;;;;;22.35;2.55;;;20.60;57.20;;;;;;21017837;28;20024;-22
2021/05/28 05:43:38;;;;;;;11.30;2.42;;;20.50;57.20;;;;;;21001056;28;20112;-22
2021/05/28 05:53:39;;;;;;;7.88;2.60;;;20.40;57.50;;;;;;20963526;28;20025;-21
2021/05/28 06:03:39;;;;;;;10.48;3.53;;;20.40;57.70;;;;;;20861118;22;20089;-21
2021/05/28 06:13:40;;;;;;;12.87;3.57;;;20.40;57.70;;;;;;20763877;28;20435;-21
2021/05/28 06:23:40;;;;;;;11.38;3.08;;;20.50;57.70;;;;;;20761955;28;20034;-21
2021/05/28 06:33:41;;;;;;;13.88;3.63;;;20.50;57.70;;;;;;20730670;28;20030;-22
2021/05/28 06:43:42;;;;;;;10.05;3.55;;;20.50;57.70;;;;;;20712242;28;20091;-22
2021/05/28 06:53:42;;;;;;;11.77;2.90;;;20.50;57.40;;;;;;20711130;28;20084;-22
2021/05/28 07:03:43;;;;;;;11.50;3.60;;;20.50;57.60;;;;;;20723473;28;20034;-22
2021/05/28 07:13:43;;;;;;;7.40;3.33;;;20.50;57.40;;;;;;20725951;28;20038;-22
2021/05/28 07:23:44;;;;;;;10.13;3.35;;;20.50;57.30;;;;;;20728338;28;20061;-21
2021/05/28 07:33:44;;;;;;;8.85;3.35;;;20.50;57.50;;;;;;20735793;28;20038;-21
2021/05/28 07:43:45;;;;;;;33.72;5.75;;;20.40;57.70;;;;;;20768501;28;20064;-21
2021/05/28 07:53:45;;;;;;;33.05;4.15;;;20.40;57.80;;;;;;20755310;28;20135;-22
2021/05/28 08:03:46;;;;;;;10.10;3.25;;;20.40;58.10;;;;;;20778287;28;20042;-21
2021/05/28 08:13:47;;;;;;;26.07;5.40;;;20.20;58.40;;;;;;20774675;28;20112;-21
2021/05/28 08:23:48;;;;;;;22.77;4.65;;;20.20;58.40;;;;;;20780966;28;20546;-21
2021/05/28 08:33:48;;;;;;;16.33;5.13;;;20.00;58.70;;;;;;20782319;28;20034;-21
2021/05/28 08:43:49;;;;;;;11.05;4.03;;;20.00;58.60;;;;;;20761479;28;20088;-21
2021/05/28 08:53:49;;;;;;;15.93;4.05;;;20.10;58.30;;;;;;20783154;28;20109;-21
2021/05/28 09:04:02;;;;;;;13.27;3.70;;;20.10;57.90;;;;;;20742561;28;20056;-21
2021/05/28 09:14:03;;;;;;;11.48;4.30;;;20.00;57.40;;;;;;20732347;28;20519;-21
2021/05/28 09:24:24;;;;;;;10.27;4.22;;;20.00;57.20;;;;;;20742470;28;20030;-21
2021/05/28 09:34:28;;;;;;;8.73;3.92;;;20.00;56.90;;;;;;20738630;28;20073;-22
2021/05/28 09:44:31;;;;;;;9.50;3.78;;;19.90;56.80;;;;;;20738974;28;20044;-22
2021/05/28 09:54:31;;;;;;;5.35;2.83;;;19.90;56.80;;;;;;20739493;28;20021;-22
2021/05/28 10:04:32;;;;;;;8.23;3.50;;;19.90;56.80;;;;;;20758197;28;20547;-22
2021/05/28 10:14:33;;;;;;;7.25;3.03;;;19.80;56.70;;;;;;20776410;28;20034;-21
2021/05/28 10:24:34;;;;;;;4.72;3.35;;;19.80;56.70;;;;;;20790176;28;20033;-21
2021/05/28 10:34:34;;;;;;;7.63;3.05;;;19.80;56.70;;;;;;20792225;28;20491;-21
2021/05/28 10:44:40;;;;;;;6.00;4.10;;;19.80;56.20;;;;;;20741150;28;20057;-22
2021/05/28 10:54:44;;;;;;;7.00;3.20;;;19.80;56.20;;;;;;20736165;28;20034;-22
2021/05/28 11:04:44;;;;;;;5.68;3.50;;;19.80;56.20;;;;;;20767119;28;20033;-22
2021/05/28 11:15:08;;;;;;;4.10;3.70;;;19.80;56.40;;;;;;20774501;28;20093;-22
2021/05/28 11:25:17;;;;;;;5.70;3.85;;;19.70;56.10;;;;;;20779087;28;20045;-22
2021/05/28 11:35:27;;;;;;;5.47;3.38;;;19.80;56.10;;;;;;20785716;28;20033;-22
2021/05/28 11:45:28;;;;;;;3.75;3.25;;;19.70;56.00;;;;;;20763659;28;20040;-22
2021/05/28 11:55:31;;;;;;;3.78;3.15;;;19.80;55.80;;;;;;20744250;28;20528;-22
2021/05/28 12:05:37;;;;;;;3.63;3.13;;;19.80;55.60;;;;;;20880496;22;20044;-22
2021/05/28 12:15:52;;;;;;;4.72;3.22;;;19.70;55.40;;;;;;20943110;28;20471;-22
2021/05/28 12:25:58;;;;;;;11.95;3.85;;;19.70;55.30;;;;;;20969574;28;20031;-22
2021/05/28 12:36:02;;;;;;;4.95;3.33;;;19.70;55.10;;;;;;20965315;28;20123;-22
2021/05/28 12:46:03;;;;;;;5.38;3.08;;;19.70;55.00;;;;;;20980736;28;20032;-22
2021/05/28 12:56:04;;;;;;;3.43;3.07;;;19.70;55.10;;;;;;20987664;28;20032;-22
2021/05/28 13:06:32;;;;;;;3.58;2.65;;;19.70;55.00;;;;;;20987218;28;20482;-22
2021/05/28 13:16:33;;;;;;;7.55;3.92;;;19.70;55.20;;;;;;20932763;28;20032;-22
2021/05/28 13:26:33;;;;;;;3.17;2.42;;;19.70;54.90;;;;;;20942314;28;20042;-22
2021/05/28 13:36:35;;;;;;;3.40;2.85;;;19.70;54.90;;;;;;20964248;28;20059;-22
2021/05/28 13:46:35;;;;;;;4.75;2.85;;;19.70;54.90;;;;;;20963897;28;20486;-22
2021/05/28 13:56:36;;;;;;;6.25;2.85;;;19.70;55.20;;;;;;20962597;28;20032;-21
2021/05/28 14:06:37;;;;;;;3.67;2.72;;;19.60;54.90;;;;;;20974154;28;20114;-21
2021/05/28 14:16:37;;;;;;;4.00;3.00;;;19.60;54.80;;;;;;20959744;28;20032;-23
2021/05/28 14:26:41;;;;;;;4.85;2.60;;;19.60;54.90;;;;;;20951150;28;20032;-22
2021/05/28 14:36:42;;;;;;;3.92;2.55;;;19.60;54.80;;;;;;20942174;28;20032;-21
2021/05/28 14:46:45;;;;;;;3.08;2.70;;;19.60;54.80;;;;;;20943701;28;20112;-20
2021/05/28 14:56:46;;;;;;;5.32;2.33;;;19.60;54.80;;;;;;20945523;28;20479;-21
2021/05/28 15:06:47;;;;;;;3.70;2.05;;;19.70;54.90;;;;;;20987568;28;20478;-21
2021/05/28 15:16:47;;;;;;;3.55;2.17;;;19.60;55.00;;;;;;20987104;28;20025;-22
2021/05/28 15:26:48;;;;;;;4.33;2.23;;;19.60;55.20;;;;;;20983185;28;20028;-23
2021/05/28 15:36:48;;;;;;;3.15;2.05;;;19.50;54.90;;;;;;20974082;28;20031;-22
2021/05/28 15:46:49;;;;;;;2.72;2.03;;;19.90;54.20;;;;;;20989029;28;20056;-22
2021/05/28 15:56:50;;;;;;;2.55;1.80;;;20.50;53.10;;;;;;20987585;28;20504;-22
2021/05/28 16:06:50;;;;;;;4.30;2.22;;;21.20;51.90;;;;;;20981000;28;20456;-22
2021/05/28 16:16:51;;;;;;;3.00;1.77;;;21.80;50.70;;;;;;20987249;28;20035;-23
2021/05/28 16:26:52;;;;;;;2.17;1.38;;;22.30;49.80;;;;;;20957028;28;20033;-22
2021/05/28 16:36:52;;;;;;;2.53;1.20;;;22.30;49.70;;;;;;20981145;28;20078;-22
2021/05/28 16:46:53;;;;;;;4.28;1.52;;;22.30;50.20;;;;;;20984942;28;20037;-22
2021/05/28 16:56:54;;;;;;;1.77;1.27;;;22.10;50.60;;;;;;20972290;28;20112;-22
2021/05/28 17:06:54;;;;;;;1.25;0.90;;;21.90;51.10;;;;;;20991833;28;20036;-22
2021/05/28 17:16:56;;;;;;;2.30;1.10;;;21.90;51.40;;;;;;20996324;28;20114;-22
2021/05/28 17:26:57;;;;;;;2.08;1.40;;;21.90;51.50;;;;;;21001096;28;20028;-22
2021/05/28 17:36:57;;;;;;;1.77;0.80;;;21.70;52.00;;;;;;21002420;28;20025;-22
2021/05/28 17:46:58;;;;;;;1.23;0.88;;;21.60;52.20;;;;;;21005377;28;20100;-22
2021/05/28 17:56:58;;;;;;;2.75;1.33;;;21.40;52.60;;;;;;21005613;28;20391;-22
2021/05/28 18:07:02;;;;;;;2.33;1.20;;;21.50;52.50;;;;;;20965900;28;20064;-20
2021/05/28 18:17:04;;;;;;;1.52;0.98;;;21.40;52.60;;;;;;20954667;28;20025;-21
2021/05/28 18:27:05;;;;;;;1.52;0.80;;;21.60;52.30;;;;;;20954025;28;20220;-22
2021/05/28 18:37:06;;;;;;;3.55;0.98;;;21.50;52.40;;;;;;20946453;28;20457;-21
2021/05/28 18:47:06;;;;;;;3.22;0.90;;;21.60;52.30;;;;;;20951986;28;20051;-21
2021/05/28 18:57:07;;;;;;;2.43;0.90;;;21.50;52.30;;;;;;20945957;28;20063;-21
2021/05/28 19:07:08;;;;;;;5.63;1.13;;;21.70;52.20;;;;;;20961829;28;20475;-20
2021/05/28 19:17:10;;;;;;;3.92;1.45;;;21.60;52.30;;;;;;20966488;28;20040;-21
2021/05/28 19:27:10;;;;;;;3.78;1.10;;;21.70;52.20;;;;;;20975731;28;20032;-21
2021/05/28 19:37:11;;;;;;;7.67;1.60;;;21.60;52.30;;;;;;20964364;28;20078;-21
2021/05/28 19:47:12;;;;;;;2.08;0.95;;;21.60;52.30;;;;;;20941577;28;20036;-21
2021/05/28 19:57:13;;;;;;;3.97;0.80;;;21.60;52.20;;;;;;20942920;28;20390;-22
2021/05/28 20:07:13;;;;;;;2.95;1.00;;;21.50;52.40;;;;;;20952088;28;20124;-22
2021/05/28 20:17:14;;;;;;;2.53;1.08;;;21.70;52.30;;;;;;20978246;28;20478;-21
2021/05/28 20:27:18;;;;;;;2.53;0.88;;;21.50;52.40;;;;;;20978028;28;20024;-22
2021/05/28 20:37:18;;;;;;;2.13;0.80;;;21.40;53.00;;;;;;20979256;28;20020;-22
2021/05/28 20:47:21;;;;;;;4.32;1.23;;;21.10;53.40;;;;;;20986008;28;20094;-22
2021/05/28 21:07:41;;;;;;;2.80;1.17;;;20.90;53.90;;;;;;20987206;28;20634;-21
2021/05/28 21:17:42;;;;;;;2.05;0.90;;;20.70;54.40;;;;;;20974484;28;20047;-21
2021/05/28 21:27:43;;;;;;;2.30;1.20;;;20.60;54.70;;;;;;20983341;28;20025;-21
2021/05/28 21:37:44;;;;;;;3.58;0.93;;;20.50;54.90;;;;;;20983905;28;20054;-21
2021/05/28 21:47:45;;;;;;;2.83;1.40;;;20.40;55.10;;;;;;20983093;28;20056;-22
2021/05/28 21:57:47;;;;;;;10.82;1.10;;;20.40;55.20;;;;;;20981835;28;20045;-21
2021/05/28 22:07:48;;;;;;;7.82;1.60;;;20.30;55.20;;;;;;20951071;28;20033;-21
2021/05/28 22:17:52;;;;;;;3.67;1.73;;;20.30;55.40;;;;;;20970992;28;20644;-21
2021/05/28 22:28:07;;;;;;;5.18;1.70;;;20.20;55.20;;;;;;20995452;28;20032;-21
2021/05/28 22:38:07;;;;;;;2.78;1.52;;;20.20;55.20;;;;;;20995228;28;20029;-21
2021/05/28 22:48:10;;;;;;;3.35;1.55;;;20.20;55.20;;;;;;20947262;28;20038;-21
2021/05/28 22:58:11;;;;;;;9.05;1.88;;;20.10;55.10;;;;;;20951634;28;20726;-21
2021/05/28 23:08:14;;;;;;;3.30;1.73;;;20.10;55.10;;;;;;20955847;28;20020;-21
2021/05/28 23:18:15;;;;;;;2.75;1.70;;;20.10;55.20;;;;;;20940008;28;20035;-21
2021/05/28 23:28:16;;;;;;;3.85;2.22;;;20.00;55.20;;;;;;20948875;28;20047;-21
2021/05/28 23:38:16;;;;;;;3.55;2.10;;;19.90;55.20;;;;;;20941699;28;20033;-21
2021/05/28 23:48:17;;;;;;;4.85;2.05;;;20.00;55.30;;;;;;20947177;28;20115;-21
2021/05/28 23:58:18;;;;;;;3.57;2.33;;;19.90;55.40;;;;;;20942515;28;20032;-21
